createdAt,value
2023-03-27T00:00:17.963Z,9.10
2023-03-27T00:01:17.993Z,9.03
2023-03-27T00:02:17.971Z,9.18
2023-03-27T00:03:18.051Z,8.88
2023-03-27T00:04:19.111Z,8.79
2023-03-27T00:05:18.882Z,8.88
2023-03-27T00:06:17.916Z,9.14
2023-03-27T00:07:17.888Z,9.08
2023-03-27T00:08:17.862Z,9.11
2023-03-27T00:09:17.849Z,9.11
2023-03-27T00:10:18.872Z,8.95
2023-03-27T00:11:17.884Z,9.06
2023-03-27T00:12:17.810Z,9.23
2023-03-27T00:13:18.816Z,9.10
2023-03-27T00:14:18.831Z,9.13
2023-03-27T00:15:17.786Z,9.13
2023-03-27T00:16:17.854Z,9.11
2023-03-27T00:17:17.768Z,9.11
2023-03-27T00:18:18.757Z,9.13
2023-03-27T00:19:17.765Z,8.99
2023-03-27T00:20:18.738Z,8.97
2023-03-27T00:21:17.763Z,9.06
2023-03-27T00:22:17.755Z,9.10
2023-03-27T00:23:17.745Z,9.08
2023-03-27T00:24:17.689Z,9.11
2023-03-27T00:25:17.683Z,9.11
2023-03-27T00:26:17.655Z,9.21
2023-03-27T00:27:17.697Z,9.18
2023-03-27T00:28:17.632Z,9.26
2023-03-27T00:29:18.669Z,9.37
2023-03-27T00:30:17.606Z,9.32
2023-03-27T00:31:17.645Z,9.08
2023-03-27T00:32:18.609Z,9.13
2023-03-27T00:33:18.570Z,9.08
2023-03-27T00:34:17.575Z,9.00
2023-03-27T00:35:17.683Z,8.95
2023-03-27T00:36:17.573Z,9.08
2023-03-27T00:37:17.531Z,8.94
2023-03-27T00:38:17.556Z,8.87
2023-03-27T00:39:17.551Z,9.08
2023-03-27T00:40:17.555Z,9.08
2023-03-27T00:41:17.589Z,9.06
2023-03-27T00:42:17.499Z,9.11
2023-03-27T00:43:17.476Z,8.95
2023-03-27T00:44:17.488Z,9.11
2023-03-27T00:45:17.468Z,9.04
2023-03-27T00:46:17.525Z,9.11
2023-03-27T00:47:17.439Z,9.22
2023-03-27T00:48:17.428Z,9.10
2023-03-27T00:49:17.430Z,9.18
2023-03-27T00:50:17.434Z,9.10
2023-03-27T00:51:17.444Z,9.08
2023-03-27T00:52:17.406Z,8.74
2023-03-27T00:53:18.379Z,8.87
2023-03-27T00:54:17.389Z,8.95
2023-03-27T00:55:18.354Z,8.94
2023-03-27T00:56:17.357Z,8.89
2023-03-27T00:57:17.455Z,8.92
2023-03-27T00:58:18.362Z,9.06
2023-03-27T00:59:17.315Z,8.94
2023-03-27T01:00:17.313Z,9.00
2023-03-27T01:01:17.306Z,8.73
2023-03-27T01:02:17.297Z,8.79
2023-03-27T01:03:17.365Z,8.95
2023-03-27T01:04:17.281Z,8.73
2023-03-27T01:05:18.258Z,8.70
2023-03-27T01:06:17.371Z,8.69
2023-03-27T01:07:17.211Z,8.70
2023-03-27T01:08:17.200Z,8.95
2023-03-27T01:09:20.610Z,8.73
2023-03-27T01:10:18.239Z,8.84
2023-03-27T01:11:18.165Z,8.73
2023-03-27T01:12:17.152Z,8.79
2023-03-27T01:13:17.190Z,8.85
2023-03-27T01:14:18.179Z,8.78
2023-03-27T01:15:17.123Z,8.85
2023-03-27T01:16:17.133Z,8.88
2023-03-27T01:17:17.114Z,8.88
2023-03-27T01:18:17.121Z,8.87
2023-03-27T01:19:17.126Z,8.73
2023-03-27T01:20:17.078Z,8.74
2023-03-27T01:21:17.048Z,8.71
2023-03-27T01:22:17.082Z,8.79
2023-03-27T01:23:17.031Z,8.85
2023-03-27T01:24:18.061Z,8.73
2023-03-27T01:25:17.070Z,8.70
2023-03-27T01:26:17.018Z,8.37
2023-03-27T01:27:17.985Z,8.30
2023-03-27T01:28:16.982Z,8.30
2023-03-27T01:29:17.004Z,8.31
2023-03-27T01:30:16.971Z,8.26
2023-03-27T01:31:17.061Z,8.27
2023-03-27T01:32:16.979Z,8.36
2023-03-27T01:33:16.917Z,8.42
2023-03-27T01:34:17.926Z,8.31
2023-03-27T01:35:16.961Z,8.27
2023-03-27T01:36:16.930Z,8.31
2023-03-27T01:37:16.895Z,8.20
2023-03-27T01:38:16.908Z,8.16
2023-03-27T01:39:16.851Z,8.18
2023-03-27T01:40:16.921Z,8.44
2023-03-27T01:41:16.864Z,8.55
2023-03-27T01:42:17.908Z,8.26
2023-03-27T01:43:16.838Z,8.18
2023-03-27T01:44:16.844Z,8.34
2023-03-27T01:45:16.814Z,8.44
2023-03-27T01:46:16.862Z,8.51
2023-03-27T01:47:16.769Z,8.31
2023-03-27T01:48:16.778Z,8.24
2023-03-27T01:49:16.779Z,8.30
2023-03-27T01:50:16.773Z,8.13
2023-03-27T01:51:16.716Z,8.13
2023-03-27T01:52:16.777Z,8.16
2023-03-27T01:53:16.713Z,8.13
2023-03-27T01:54:16.731Z,8.20
2023-03-27T01:55:16.707Z,8.15
2023-03-27T01:56:17.732Z,8.36
2023-03-27T01:57:16.703Z,8.18
2023-03-27T01:58:16.657Z,8.27
2023-03-27T01:59:16.650Z,8.19
2023-03-27T02:00:17.917Z,7.94
2023-03-27T02:01:16.674Z,7.75
2023-03-27T02:02:16.653Z,7.97
2023-03-27T02:03:16.590Z,8.03
2023-03-27T02:04:16.632Z,8.05
2023-03-27T02:05:16.631Z,7.98
2023-03-27T02:06:16.588Z,8.20
2023-03-27T02:07:16.596Z,8.20
2023-03-27T02:08:16.615Z,8.26
2023-03-27T02:09:16.545Z,8.15
2023-03-27T02:10:16.536Z,8.20
2023-03-27T02:11:16.517Z,8.20
2023-03-27T02:12:17.485Z,8.15
2023-03-27T02:13:16.479Z,8.13
2023-03-27T02:14:16.543Z,8.18
2023-03-27T02:15:23.100Z,8.15
2023-03-27T02:16:17.555Z,8.13
2023-03-27T02:17:16.475Z,8.30
2023-03-27T02:18:16.477Z,8.42
2023-03-27T02:19:16.455Z,8.31
2023-03-27T02:20:16.470Z,8.28
2023-03-27T02:21:16.415Z,8.31
2023-03-27T02:22:16.388Z,8.19
2023-03-27T02:23:17.444Z,8.18
2023-03-27T02:24:16.409Z,8.27
2023-03-27T02:25:16.348Z,8.30
2023-03-27T02:26:16.374Z,8.46
2023-03-27T02:27:16.410Z,8.44
2023-03-27T02:28:16.324Z,8.44
2023-03-27T02:29:16.367Z,8.45
2023-03-27T02:30:16.336Z,8.46
2023-03-27T02:31:32.522Z,8.52
2023-03-27T02:32:17.310Z,8.58
2023-03-27T02:33:17.334Z,8.55
2023-03-27T02:34:16.263Z,8.38
2023-03-27T02:35:16.306Z,8.42
2023-03-27T02:36:16.247Z,8.46
2023-03-27T02:37:16.334Z,8.52
2023-03-27T02:38:16.223Z,8.55
2023-03-27T02:39:16.232Z,8.69
2023-03-27T02:40:17.285Z,8.64
2023-03-27T02:41:16.211Z,8.73
2023-03-27T02:42:16.223Z,8.74
2023-03-27T02:43:16.231Z,8.63
2023-03-27T02:44:16.151Z,8.52
2023-03-27T02:45:16.156Z,8.58
2023-03-27T02:46:16.225Z,8.53
2023-03-27T02:47:17.124Z,8.63
2023-03-27T02:48:16.186Z,8.63
2023-03-27T02:49:16.114Z,8.48
2023-03-27T02:50:17.088Z,8.41
2023-03-27T02:51:16.168Z,8.45
2023-03-27T02:52:16.086Z,8.44
2023-03-27T02:53:17.062Z,8.51
2023-03-27T02:54:16.085Z,8.56
2023-03-27T02:55:16.079Z,8.44
2023-03-27T02:56:16.079Z,8.31
2023-03-27T02:57:16.031Z,8.27
2023-03-27T02:58:16.028Z,8.15
2023-03-27T02:59:16.006Z,8.31
2023-03-27T03:00:16.027Z,8.24
2023-03-27T03:01:16.003Z,8.16
2023-03-27T03:02:16.061Z,8.09
2023-03-27T03:03:16.006Z,7.90
2023-03-27T03:04:16.933Z,8.00
2023-03-27T03:05:15.954Z,8.01
2023-03-27T03:06:16.934Z,8.01
2023-03-27T03:07:15.912Z,7.98
2023-03-27T03:08:15.922Z,8.05
2023-03-27T03:09:16.898Z,8.13
2023-03-27T03:10:15.881Z,8.13
2023-03-27T03:11:15.945Z,8.28
2023-03-27T03:12:15.854Z,8.20
2023-03-27T03:13:16.843Z,8.16
2023-03-27T03:14:15.861Z,8.15
2023-03-27T03:15:15.808Z,8.19
2023-03-27T03:16:15.861Z,8.16
2023-03-27T03:17:15.836Z,7.98
2023-03-27T03:18:15.778Z,8.12
2023-03-27T03:19:16.798Z,8.05
2023-03-27T03:20:16.800Z,8.19
2023-03-27T03:21:16.789Z,8.26
2023-03-27T03:22:15.754Z,8.30
2023-03-27T03:23:15.798Z,8.23
2023-03-27T03:24:15.724Z,7.98
2023-03-27T03:25:15.716Z,7.98
2023-03-27T03:26:15.723Z,8.03
2023-03-27T03:27:15.746Z,7.95
2023-03-27T03:28:15.694Z,7.91
2023-03-27T03:29:15.700Z,7.80
2023-03-27T03:30:16.533Z,7.85
2023-03-27T03:31:15.719Z,7.94
2023-03-27T03:32:15.660Z,8.00
2023-03-27T03:33:16.642Z,8.10
2023-03-27T03:34:15.632Z,8.10
2023-03-27T03:35:16.654Z,8.13
2023-03-27T03:36:16.609Z,8.18
2023-03-27T03:37:15.649Z,8.15
2023-03-27T03:38:15.563Z,8.13
2023-03-27T03:39:15.553Z,8.16
2023-03-27T03:40:15.592Z,8.31
2023-03-27T03:41:15.594Z,8.28
2023-03-27T03:42:22.895Z,8.18
2023-03-27T03:43:16.509Z,8.28
2023-03-27T03:44:15.495Z,8.19
2023-03-27T03:45:16.545Z,8.05
2023-03-27T03:46:15.547Z,7.94
2023-03-27T03:47:15.472Z,7.85
2023-03-27T03:48:15.482Z,7.70
2023-03-27T03:49:15.477Z,7.76
2023-03-27T03:50:15.433Z,7.72
2023-03-27T03:51:15.482Z,7.66
2023-03-27T03:52:15.433Z,7.56
2023-03-27T03:53:15.431Z,7.60
2023-03-27T03:54:16.390Z,7.69
2023-03-27T03:55:15.421Z,7.76
2023-03-27T03:56:15.429Z,7.73
2023-03-27T03:57:15.596Z,7.83
2023-03-27T03:58:15.498Z,7.85
2023-03-27T03:59:15.348Z,7.75
2023-03-27T04:00:15.340Z,7.79
2023-03-27T04:01:15.325Z,7.85
2023-03-27T04:02:15.460Z,7.91
2023-03-27T04:03:15.421Z,7.97
2023-03-27T04:04:15.453Z,7.72
2023-03-27T04:05:15.265Z,7.48
2023-03-27T04:06:15.260Z,7.23
2023-03-27T04:07:16.288Z,7.06
2023-03-27T04:08:16.255Z,7.20
2023-03-27T04:09:15.229Z,7.17
2023-03-27T04:10:16.240Z,7.24
2023-03-27T04:11:15.207Z,7.33
2023-03-27T04:12:15.217Z,7.15
2023-03-27T04:13:15.169Z,7.11
2023-03-27T04:14:15.173Z,7.24
2023-03-27T04:15:15.193Z,7.02
2023-03-27T04:16:16.204Z,7.10
2023-03-27T04:17:15.145Z,7.17
2023-03-27T04:18:15.356Z,7.00
2023-03-27T04:19:15.120Z,7.05
2023-03-27T04:20:15.142Z,7.05
2023-03-27T04:21:16.094Z,7.13
2023-03-27T04:22:15.124Z,7.21
2023-03-27T04:23:15.089Z,7.24
2023-03-27T04:24:15.102Z,7.24
2023-03-27T04:25:15.093Z,7.28
2023-03-27T04:26:15.118Z,7.33
2023-03-27T04:27:15.021Z,7.29
2023-03-27T04:28:15.003Z,7.33
2023-03-27T04:29:16.055Z,7.24
2023-03-27T04:30:15.047Z,7.13
2023-03-27T04:31:15.000Z,7.06
2023-03-27T04:32:14.975Z,6.97
2023-03-27T04:33:14.963Z,7.02
2023-03-27T04:34:15.993Z,6.96
2023-03-27T04:35:14.948Z,7.10
2023-03-27T04:36:15.048Z,7.24
2023-03-27T04:37:15.943Z,7.11
2023-03-27T04:38:15.022Z,7.25
2023-03-27T04:39:14.910Z,7.15
2023-03-27T04:40:15.942Z,7.14
2023-03-27T04:41:14.884Z,7.05
2023-03-27T04:42:14.898Z,7.11
2023-03-27T04:43:14.867Z,7.00
2023-03-27T04:44:14.882Z,6.69
2023-03-27T04:45:14.825Z,6.69
2023-03-27T04:46:14.919Z,6.69
2023-03-27T04:47:14.906Z,6.78
2023-03-27T04:48:14.805Z,6.78
2023-03-27T04:49:15.925Z,6.70
2023-03-27T04:50:14.792Z,6.69
2023-03-27T04:51:14.827Z,6.64
2023-03-27T04:52:14.763Z,6.74
2023-03-27T04:53:14.761Z,6.72
2023-03-27T04:54:14.735Z,6.74
2023-03-27T04:55:14.751Z,6.64
2023-03-27T04:56:15.721Z,6.59
2023-03-27T04:57:15.801Z,6.66
2023-03-27T04:58:15.694Z,6.69
2023-03-27T04:59:14.689Z,6.57
2023-03-27T05:00:14.681Z,6.59
2023-03-27T05:01:14.744Z,6.59
2023-03-27T05:02:15.652Z,6.77
2023-03-27T05:03:15.771Z,6.77
2023-03-27T05:04:14.624Z,6.69
2023-03-27T05:05:14.662Z,6.56
2023-03-27T05:06:14.624Z,6.48
2023-03-27T05:07:14.628Z,6.33
2023-03-27T05:08:14.582Z,6.20
2023-03-27T05:09:14.565Z,6.36
2023-03-27T05:10:15.554Z,6.56
2023-03-27T05:11:14.601Z,6.56
2023-03-27T05:12:14.557Z,6.64
2023-03-27T05:13:14.535Z,6.62
2023-03-27T05:14:14.513Z,6.56
2023-03-27T05:15:14.515Z,6.41
2023-03-27T05:16:15.556Z,6.31
2023-03-27T05:17:14.522Z,6.35
2023-03-27T05:18:14.466Z,6.39
2023-03-27T05:19:15.455Z,6.44
2023-03-27T05:20:15.449Z,6.42
2023-03-27T05:21:14.435Z,6.42
2023-03-27T05:22:15.457Z,6.38
2023-03-27T05:23:14.412Z,6.26
2023-03-27T05:24:15.444Z,6.35
2023-03-27T05:25:15.374Z,6.51
2023-03-27T05:26:15.400Z,6.56
2023-03-27T05:27:14.394Z,6.42
2023-03-27T05:28:14.389Z,6.24
2023-03-27T05:29:14.357Z,6.19
2023-03-27T05:30:14.338Z,6.26
2023-03-27T05:31:15.387Z,6.28
2023-03-27T05:32:14.324Z,6.26
2023-03-27T05:33:14.339Z,6.17
2023-03-27T05:34:14.334Z,6.04
2023-03-27T05:35:14.288Z,5.93
2023-03-27T05:36:15.276Z,6.11
2023-03-27T05:37:14.262Z,6.39
2023-03-27T05:38:15.241Z,6.01
2023-03-27T05:39:14.234Z,6.09
2023-03-27T05:40:14.261Z,6.16
2023-03-27T05:41:14.216Z,6.05
2023-03-27T05:42:14.224Z,6.09
2023-03-27T05:43:15.211Z,5.94
2023-03-27T05:44:14.237Z,6.05
2023-03-27T05:45:14.227Z,6.04
2023-03-27T05:46:14.183Z,6.24
2023-03-27T05:47:15.123Z,6.24
2023-03-27T05:48:15.110Z,6.31
2023-03-27T05:49:14.129Z,6.51
2023-03-27T05:50:14.130Z,6.56
2023-03-27T05:51:14.141Z,6.46
2023-03-27T05:52:14.127Z,6.56
2023-03-27T05:53:14.093Z,6.54
2023-03-27T05:54:15.079Z,6.56
2023-03-27T05:55:14.068Z,6.62
2023-03-27T05:56:14.050Z,6.70
2023-03-27T05:57:14.110Z,6.60
2023-03-27T05:58:14.038Z,6.33
2023-03-27T05:59:13.989Z,6.20
2023-03-27T06:00:14.073Z,6.20
2023-03-27T06:01:13.980Z,6.26
2023-03-27T06:02:14.014Z,6.44
2023-03-27T06:03:14.179Z,6.46
2023-03-27T06:04:13.995Z,6.66
2023-03-27T06:05:14.929Z,6.59
2023-03-27T06:06:14.924Z,6.54
2023-03-27T06:07:13.919Z,6.24
2023-03-27T06:08:14.969Z,6.36
2023-03-27T06:09:13.895Z,6.41
2023-03-27T06:10:14.402Z,6.66
2023-03-27T06:11:13.896Z,6.81
2023-03-27T06:12:13.861Z,6.69
2023-03-27T06:13:13.894Z,6.78
2023-03-27T06:14:13.918Z,6.49
2023-03-27T06:15:13.838Z,6.48
2023-03-27T06:16:13.886Z,6.56
2023-03-27T06:17:13.843Z,6.60
2023-03-27T06:18:13.814Z,6.75
2023-03-27T06:19:13.845Z,6.49
2023-03-27T06:20:14.793Z,6.54
2023-03-27T06:21:13.782Z,6.62
2023-03-27T06:22:14.791Z,6.48
2023-03-27T06:23:14.825Z,6.66
2023-03-27T06:24:13.801Z,6.70
2023-03-27T06:25:13.798Z,6.75
2023-03-27T06:26:14.849Z,6.74
2023-03-27T06:27:13.708Z,6.63
2023-03-27T06:28:13.704Z,6.67
2023-03-27T06:29:13.679Z,6.48
2023-03-27T06:30:13.751Z,6.56
2023-03-27T06:31:14.765Z,6.59
2023-03-27T06:32:13.667Z,6.60
2023-03-27T06:33:14.080Z,6.66
2023-03-27T06:34:13.618Z,6.63
2023-03-27T06:35:14.743Z,6.63
2023-03-27T06:36:14.643Z,6.59
2023-03-27T06:37:13.621Z,6.78
2023-03-27T06:38:14.599Z,6.70
2023-03-27T06:39:13.624Z,6.87
2023-03-27T06:40:13.583Z,6.93
2023-03-27T06:41:14.579Z,7.05
2023-03-27T06:42:13.643Z,6.66
2023-03-27T06:43:13.522Z,6.84
2023-03-27T06:44:14.502Z,6.92
2023-03-27T06:45:13.513Z,6.95
2023-03-27T06:46:13.570Z,7.06
2023-03-27T06:47:14.541Z,7.20
2023-03-27T06:48:20.579Z,7.33
2023-03-27T06:49:14.555Z,6.95
2023-03-27T06:50:13.467Z,6.84
2023-03-27T06:51:13.677Z,6.85
2023-03-27T06:52:13.447Z,7.15
2023-03-27T06:53:25.966Z,7.25
2023-03-27T06:54:14.414Z,7.32
2023-03-27T06:55:14.940Z,7.28
2023-03-27T06:56:13.404Z,7.24
2023-03-27T06:57:13.437Z,7.33
2023-03-27T06:58:13.373Z,7.24
2023-03-27T06:59:13.360Z,7.20
2023-03-27T07:00:13.364Z,7.29
2023-03-27T07:01:13.358Z,7.20
2023-03-27T07:02:13.353Z,7.13
2023-03-27T07:03:13.351Z,7.21
2023-03-27T07:04:21.057Z,6.97
2023-03-27T07:05:13.317Z,6.87
2023-03-27T07:06:13.276Z,6.81
2023-03-27T07:07:13.293Z,6.88
2023-03-27T07:08:21.612Z,6.78
2023-03-27T07:09:14.340Z,6.96
2023-03-27T07:10:13.243Z,7.03
2023-03-27T07:11:13.348Z,7.05
2023-03-27T07:12:14.233Z,7.20
2023-03-27T07:13:13.246Z,7.29
2023-03-27T07:14:13.183Z,7.32
2023-03-27T07:15:13.164Z,7.25
2023-03-27T07:16:13.196Z,7.03
2023-03-27T07:17:13.168Z,6.99
2023-03-27T07:18:13.243Z,6.79
2023-03-27T07:19:14.045Z,7.05
2023-03-27T07:20:13.326Z,7.07
2023-03-27T07:21:14.103Z,7.18
2023-03-27T07:22:13.083Z,7.18
2023-03-27T07:23:13.104Z,7.40
2023-03-27T07:24:13.066Z,7.70
2023-03-27T07:25:13.082Z,7.80
2023-03-27T07:26:13.348Z,7.93
2023-03-27T07:27:13.038Z,7.82
2023-03-27T07:28:13.028Z,7.93
2023-03-27T07:29:14.027Z,7.80
2023-03-27T07:30:13.015Z,7.75
2023-03-27T07:31:25.985Z,7.80
2023-03-27T07:32:17.232Z,7.79
2023-03-27T07:33:14.039Z,8.09
2023-03-27T07:34:13.072Z,8.03
2023-03-27T07:35:12.946Z,8.10
2023-03-27T07:36:12.931Z,8.00
2023-03-27T07:37:12.956Z,8.10
2023-03-27T07:38:12.977Z,8.03
2023-03-27T07:39:12.914Z,7.91
2023-03-27T07:40:12.897Z,7.88
2023-03-27T07:41:12.905Z,7.60
2023-03-27T07:42:13.888Z,7.72
2023-03-27T07:43:13.843Z,7.56
2023-03-27T07:44:12.856Z,7.87
2023-03-27T07:45:12.825Z,7.93
2023-03-27T07:46:12.873Z,7.97
2023-03-27T07:47:12.852Z,8.06
2023-03-27T07:48:13.829Z,8.06
2023-03-27T07:49:12.806Z,7.60
2023-03-27T07:50:12.800Z,7.72
2023-03-27T07:51:14.479Z,7.61
2023-03-27T07:52:14.702Z,7.51
2023-03-27T07:53:32.902Z,7.54
2023-03-27T07:54:13.769Z,7.77
2023-03-27T07:55:12.722Z,7.93
2023-03-27T07:56:12.716Z,8.06
2023-03-27T07:57:12.823Z,7.95
2023-03-27T07:58:12.796Z,7.61
2023-03-27T07:59:12.725Z,7.51
2023-03-27T08:00:12.693Z,7.61
2023-03-27T08:01:12.693Z,7.69
2023-03-27T08:02:13.691Z,7.82
2023-03-27T08:03:12.797Z,7.80
2023-03-27T08:04:13.821Z,7.91
2023-03-27T08:05:12.712Z,7.67
2023-03-27T08:06:12.631Z,7.66
2023-03-27T08:07:12.643Z,7.56
2023-03-27T08:08:12.589Z,7.75
2023-03-27T08:09:12.605Z,7.88
2023-03-27T08:10:12.650Z,7.90
2023-03-27T08:11:22.966Z,8.01
2023-03-27T08:12:13.551Z,8.13
2023-03-27T08:13:12.575Z,8.15
2023-03-27T08:14:12.538Z,8.18
2023-03-27T08:15:12.512Z,8.33
2023-03-27T08:16:12.546Z,8.16
2023-03-27T08:17:16.330Z,8.01
2023-03-27T08:18:12.568Z,8.15
2023-03-27T08:19:12.464Z,8.05
2023-03-27T08:20:12.473Z,8.08
2023-03-27T08:21:12.437Z,8.10
2023-03-27T08:22:12.419Z,8.18
2023-03-27T08:23:12.438Z,8.03
2023-03-27T08:24:12.418Z,7.66
2023-03-27T08:25:12.393Z,7.76
2023-03-27T08:26:12.428Z,7.72
2023-03-27T08:27:12.402Z,8.01
2023-03-27T08:28:12.485Z,8.06
2023-03-27T08:29:13.383Z,8.10
2023-03-27T08:30:12.344Z,8.01
2023-03-27T08:31:12.387Z,7.97
2023-03-27T08:32:12.340Z,7.75
2023-03-27T08:33:12.344Z,7.77
2023-03-27T08:34:12.311Z,7.76
2023-03-27T08:35:12.523Z,7.72
2023-03-27T08:36:12.402Z,7.73
2023-03-27T08:37:12.269Z,7.69
2023-03-27T08:38:25.806Z,7.91
2023-03-27T08:39:13.254Z,8.05
2023-03-27T08:40:12.257Z,8.41
2023-03-27T08:41:13.260Z,8.60
2023-03-27T08:42:12.221Z,8.79
2023-03-27T08:43:12.274Z,8.60
2023-03-27T08:44:12.211Z,8.51
2023-03-27T08:45:12.166Z,8.36
2023-03-27T08:46:12.204Z,8.42
2023-03-27T08:47:12.215Z,8.45
2023-03-27T08:48:13.151Z,8.44
2023-03-27T08:49:12.128Z,8.56
2023-03-27T08:50:12.165Z,8.67
2023-03-27T08:51:12.990Z,8.42
2023-03-27T08:52:12.102Z,8.46
2023-03-27T08:53:13.143Z,8.27
2023-03-27T08:54:12.092Z,8.15
2023-03-27T08:55:12.073Z,8.23
2023-03-27T08:56:12.074Z,8.10
2023-03-27T08:57:12.094Z,7.87
2023-03-27T08:58:12.050Z,7.83
2023-03-27T08:59:12.068Z,7.80
2023-03-27T09:00:12.026Z,7.90
2023-03-27T09:01:12.032Z,7.98
2023-03-27T09:02:12.033Z,8.01
2023-03-27T09:03:13.081Z,8.09
2023-03-27T09:04:11.995Z,8.10
2023-03-27T09:05:11.969Z,8.23
2023-03-27T09:06:12.983Z,8.38
2023-03-27T09:07:11.932Z,8.37
2023-03-27T09:08:11.941Z,7.97
2023-03-27T09:09:11.931Z,8.08
2023-03-27T09:10:12.944Z,8.10
2023-03-27T09:11:11.930Z,8.23
2023-03-27T09:12:11.876Z,7.94
2023-03-27T09:13:11.903Z,7.83
2023-03-27T09:14:11.862Z,7.82
2023-03-27T09:15:11.874Z,7.87
2023-03-27T09:16:12.914Z,8.08
2023-03-27T09:17:11.877Z,8.13
2023-03-27T09:18:11.817Z,8.41
2023-03-27T09:19:11.791Z,8.53
2023-03-27T09:20:11.783Z,8.44
2023-03-27T09:21:11.783Z,8.45
2023-03-27T09:22:12.827Z,8.20
2023-03-27T09:23:11.754Z,8.41
2023-03-27T09:24:12.753Z,8.64
2023-03-27T09:25:11.729Z,8.56
2023-03-27T09:26:11.722Z,8.31
2023-03-27T09:27:11.765Z,8.49
2023-03-27T09:28:11.706Z,8.71
2023-03-27T09:29:12.722Z,8.42
2023-03-27T09:30:12.687Z,8.45
2023-03-27T09:31:11.724Z,8.52
2023-03-27T09:32:11.700Z,8.89
2023-03-27T09:33:11.719Z,8.85
2023-03-27T09:34:11.639Z,8.95
2023-03-27T09:35:11.665Z,8.84
2023-03-27T09:36:11.662Z,8.71
2023-03-27T09:37:11.612Z,8.69
2023-03-27T09:38:11.638Z,8.55
2023-03-27T09:39:11.600Z,8.51
2023-03-27T09:40:11.611Z,8.74
2023-03-27T09:41:11.554Z,8.69
2023-03-27T09:42:11.561Z,8.85
2023-03-27T09:43:11.590Z,9.13
2023-03-27T09:44:12.525Z,9.29
2023-03-27T09:45:11.544Z,9.56
2023-03-27T09:46:11.507Z,9.56
2023-03-27T09:47:11.489Z,9.28
2023-03-27T09:48:11.470Z,9.19
2023-03-27T09:49:11.502Z,9.23
2023-03-27T09:50:12.453Z,9.26
2023-03-27T09:51:11.450Z,9.26
2023-03-27T09:52:11.446Z,9.46
2023-03-27T09:53:11.444Z,9.61
2023-03-27T09:54:11.447Z,9.46
2023-03-27T09:55:11.444Z,9.02
2023-03-27T09:56:11.378Z,8.94
2023-03-27T09:57:11.431Z,8.56
2023-03-27T09:58:12.452Z,8.73
2023-03-27T09:59:11.371Z,8.73
2023-03-27T10:00:12.342Z,8.67
2023-03-27T10:01:12.410Z,8.71
2023-03-27T10:02:11.370Z,9.06
2023-03-27T10:03:11.391Z,9.18
2023-03-27T10:04:11.332Z,9.25
2023-03-27T10:05:11.321Z,9.46
2023-03-27T10:06:12.276Z,9.41
2023-03-27T10:07:11.280Z,9.58
2023-03-27T10:08:11.248Z,9.61
2023-03-27T10:09:11.269Z,9.80
2023-03-27T10:10:11.246Z,9.99
2023-03-27T10:11:11.231Z,10.01
2023-03-27T10:12:11.241Z,10.12
2023-03-27T10:13:11.242Z,10.07
2023-03-27T10:14:12.246Z,10.10
2023-03-27T10:15:11.222Z,10.33
2023-03-27T10:16:11.203Z,10.42
2023-03-27T10:17:12.171Z,10.31
2023-03-27T10:18:11.172Z,10.31
2023-03-27T10:19:11.183Z,10.37
2023-03-27T10:20:11.148Z,9.95
2023-03-27T10:21:11.139Z,9.58
2023-03-27T10:22:14.413Z,9.64
2023-03-27T10:23:11.122Z,9.46
2023-03-27T10:24:11.123Z,9.41
2023-03-27T10:25:11.089Z,9.21
2023-03-27T10:26:12.079Z,9.44
2023-03-27T10:27:11.062Z,9.51
2023-03-27T10:28:11.081Z,9.32
2023-03-27T10:29:11.031Z,9.28
2023-03-27T10:30:11.057Z,9.44
2023-03-27T10:31:11.023Z,9.22
2023-03-27T10:32:11.152Z,9.08
2023-03-27T10:33:11.066Z,9.03
2023-03-27T10:34:12.010Z,8.95
2023-03-27T10:35:12.038Z,8.95
2023-03-27T10:36:11.007Z,8.99
2023-03-27T10:37:10.964Z,8.85
2023-03-27T10:38:10.948Z,8.41
2023-03-27T10:39:10.936Z,8.31
2023-03-27T10:40:10.924Z,8.18
2023-03-27T10:41:10.934Z,8.05
2023-03-27T10:42:10.928Z,8.37
2023-03-27T10:43:12.642Z,8.13
2023-03-27T10:44:10.855Z,8.24
2023-03-27T10:45:10.842Z,8.46
2023-03-27T10:46:11.003Z,8.45
2023-03-27T10:47:10.846Z,8.53
2023-03-27T10:48:10.864Z,8.71
2023-03-27T10:49:11.821Z,9.03
2023-03-27T10:50:10.807Z,9.25
2023-03-27T10:51:10.830Z,9.43
2023-03-27T10:52:10.802Z,9.58
2023-03-27T10:53:10.842Z,9.58
2023-03-27T10:54:11.833Z,9.55
2023-03-27T10:55:10.784Z,9.58
2023-03-27T10:56:10.743Z,9.51
2023-03-27T10:57:10.780Z,9.51
2023-03-27T10:58:10.745Z,9.59
2023-03-27T10:59:10.741Z,9.55
2023-03-27T11:00:10.740Z,9.43
2023-03-27T11:01:10.733Z,9.62
2023-03-27T11:02:10.694Z,9.66
2023-03-27T11:03:10.813Z,9.69
2023-03-27T11:04:11.739Z,9.83
2023-03-27T11:05:10.659Z,10.12
2023-03-27T11:06:11.702Z,10.26
2023-03-27T11:07:10.642Z,10.46
2023-03-27T11:08:10.616Z,10.59
2023-03-27T11:09:10.613Z,10.61
2023-03-27T11:10:10.582Z,10.67
2023-03-27T11:11:10.584Z,10.76
2023-03-27T11:12:10.605Z,10.84
2023-03-27T11:13:10.553Z,10.81
2023-03-27T11:14:10.664Z,10.72
2023-03-27T11:15:10.546Z,10.64
2023-03-27T11:16:10.509Z,10.35
2023-03-27T11:17:10.542Z,10.23
2023-03-27T11:18:10.560Z,10.07
2023-03-27T11:19:10.536Z,9.64
2023-03-27T11:20:10.477Z,8.84
2023-03-27T11:21:10.458Z,8.13
2023-03-27T11:22:10.447Z,8.10
2023-03-27T11:23:10.466Z,8.20
2023-03-27T11:24:11.442Z,8.15
2023-03-27T11:25:10.433Z,8.00
2023-03-27T11:26:10.412Z,8.09
2023-03-27T11:27:11.410Z,8.28
2023-03-27T11:28:10.418Z,8.30
2023-03-27T11:29:11.369Z,8.53
2023-03-27T11:30:11.392Z,8.73
2023-03-27T11:31:12.205Z,8.78
2023-03-27T11:32:10.403Z,8.88
2023-03-27T11:33:10.375Z,8.79
2023-03-27T11:34:10.329Z,8.87
2023-03-27T11:35:10.336Z,9.06
2023-03-27T11:36:11.326Z,9.23
2023-03-27T11:37:11.294Z,9.32
2023-03-27T11:38:10.307Z,9.46
2023-03-27T11:39:10.312Z,9.47
2023-03-27T11:40:10.262Z,9.32
2023-03-27T11:41:10.259Z,9.40
2023-03-27T11:42:10.232Z,9.25
2023-03-27T11:43:11.215Z,9.37
2023-03-27T11:44:10.259Z,9.28
2023-03-27T11:45:10.224Z,9.34
2023-03-27T11:46:10.221Z,9.44
2023-03-27T11:47:10.181Z,9.58
2023-03-27T11:48:11.215Z,9.68
2023-03-27T11:49:10.146Z,9.59
2023-03-27T11:50:10.171Z,9.56
2023-03-27T11:51:10.184Z,9.46
2023-03-27T11:52:10.140Z,9.34
2023-03-27T11:53:10.134Z,9.21
2023-03-27T11:54:10.093Z,8.70
2023-03-27T11:55:10.169Z,8.79
2023-03-27T11:56:10.127Z,8.71
2023-03-27T11:57:10.144Z,8.49
2023-03-27T11:58:10.114Z,8.38
2023-03-27T11:59:10.041Z,8.26
2023-03-27T12:00:10.039Z,8.61
2023-03-27T12:01:10.013Z,8.64
2023-03-27T12:02:10.080Z,8.88
2023-03-27T12:03:10.190Z,8.78
2023-03-27T12:04:10.061Z,8.76
2023-03-27T12:05:10.983Z,8.76
2023-03-27T12:06:09.969Z,8.89
2023-03-27T12:07:12.174Z,8.99
2023-03-27T12:08:09.983Z,9.13
2023-03-27T12:09:09.941Z,9.41
2023-03-27T12:10:10.910Z,9.56
2023-03-27T12:11:10.920Z,9.77
2023-03-27T12:12:09.903Z,9.94
2023-03-27T12:13:09.909Z,9.76
2023-03-27T12:14:17.754Z,9.98
2023-03-27T12:15:10.923Z,9.87
2023-03-27T12:16:09.888Z,10.02
2023-03-27T12:17:09.898Z,10.05
2023-03-27T12:18:09.904Z,10.20
2023-03-27T12:19:21.128Z,10.31
2023-03-27T12:20:10.843Z,10.01
2023-03-27T12:21:09.812Z,10.16
2023-03-27T12:22:22.589Z,10.07
2023-03-27T12:23:10.787Z,10.09
2023-03-27T12:24:09.768Z,10.26
2023-03-27T12:25:09.773Z,10.30
2023-03-27T12:26:09.778Z,10.40
2023-03-27T12:27:09.773Z,10.60
2023-03-27T12:28:22.089Z,10.46
2023-03-27T12:29:23.819Z,10.41
2023-03-27T12:30:10.699Z,10.67
2023-03-27T12:31:10.748Z,10.81
2023-03-27T12:32:09.749Z,10.92
2023-03-27T12:33:09.711Z,11.00
2023-03-27T12:34:10.686Z,11.10
2023-03-27T12:35:09.644Z,11.22
2023-03-27T12:36:09.682Z,11.47
2023-03-27T12:37:09.666Z,11.55
2023-03-27T12:38:09.645Z,11.15
2023-03-27T12:39:10.616Z,11.08
2023-03-27T12:40:09.670Z,11.11
2023-03-27T12:41:09.634Z,11.05
2023-03-27T12:42:09.573Z,11.22
2023-03-27T12:43:09.550Z,11.25
2023-03-27T12:44:10.584Z,11.07
2023-03-27T12:45:10.548Z,10.96
2023-03-27T12:46:09.633Z,11.02
2023-03-27T12:47:09.523Z,10.99
2023-03-27T12:48:09.549Z,10.71
2023-03-27T12:49:09.538Z,10.84
2023-03-27T12:50:09.515Z,10.89
2023-03-27T12:51:09.495Z,11.15
2023-03-27T12:52:09.480Z,11.02
2023-03-27T12:53:09.457Z,10.94
2023-03-27T12:54:09.492Z,10.99
2023-03-27T12:55:10.460Z,11.08
2023-03-27T12:56:10.420Z,11.02
2023-03-27T12:57:09.556Z,10.93
2023-03-27T12:58:09.581Z,10.99
2023-03-27T12:59:09.400Z,11.18
2023-03-27T13:00:09.388Z,11.35
2023-03-27T13:01:09.423Z,11.45
2023-03-27T13:02:09.461Z,11.30
2023-03-27T13:03:10.410Z,11.08
2023-03-27T13:04:09.344Z,10.89
2023-03-27T13:05:24.222Z,11.07
2023-03-27T13:06:10.361Z,11.07
2023-03-27T13:07:09.370Z,10.75
2023-03-27T13:08:09.311Z,10.79
2023-03-27T13:09:10.285Z,10.92
2023-03-27T13:10:09.276Z,11.22
2023-03-27T13:11:09.269Z,11.23
2023-03-27T13:12:10.290Z,11.37
2023-03-27T13:13:09.243Z,11.26
2023-03-27T13:14:10.252Z,11.27
2023-03-27T13:15:09.208Z,11.25